sensor_id;sensor_type;location;lat;lon;timestamp;temperature;humidity
64718;DHT22;62506;46.070;14.492;2023-10-08T00:01:35;23.50;66.00
64718;DHT22;62506;46.070;14.492;2023-10-08T00:04:07;23.50;66.00
64718;DHT22;62506;46.070;14.492;2023-10-08T00:06:33;23.50;66.00
64718;DHT22;62506;46.070;14.492;2023-10-08T00:08:58;23.50;66.00
64718;DHT22;62506;46.070;14.492;2023-10-08T00:11:32;23.50;66.00
64718;DHT22;62506;46.070;14.492;2023-10-08T00:13:59;23.50;66.00
64718;DHT22;62506;46.070;14.492;2023-10-08T00:16:26;23.50;66.00
64718;DHT22;62506;46.070;14.492;2023-10-08T00:18:53;23.50;65.90
64718;DHT22;62506;46.070;14.492;2023-10-08T00:21:24;23.50;65.90
64718;DHT22;62506;46.070;14.492;2023-10-08T00:23:52;23.50;65.80
64718;DHT22;62506;46.070;14.492;2023-10-08T00:26:21;23.50;65.70
64718;DHT22;62506;46.070;14.492;2023-10-08T00:28:59;23.50;65.80
64718;DHT22;62506;46.070;14.492;2023-10-08T00:31:26;23.50;65.70
64718;DHT22;62506;46.070;14.492;2023-10-08T00:33:57;23.50;65.70
64718;DHT22;62506;46.070;14.492;2023-10-08T00:36:22;23.50;65.60
64718;DHT22;62506;46.070;14.492;2023-10-08T00:38:49;23.50;65.50
64718;DHT22;62506;46.070;14.492;2023-10-08T00:41:18;23.50;65.50
64718;DHT22;62506;46.070;14.492;2023-10-08T00:44:06;23.50;65.70
64718;DHT22;62506;46.070;14.492;2023-10-08T00:46:33;23.50;65.70
64718;DHT22;62506;46.070;14.492;2023-10-08T00:49:01;23.50;65.70
64718;DHT22;62506;46.070;14.492;2023-10-08T00:51:51;23.50;65.70
64718;DHT22;62506;46.070;14.492;2023-10-08T00:54:49;23.40;65.70
64718;DHT22;62506;46.070;14.492;2023-10-08T00:57:34;23.40;65.60
64718;DHT22;62506;46.070;14.492;2023-10-08T01:00:02;23.40;65.60
64718;DHT22;62506;46.070;14.492;2023-10-08T01:02:31;23.40;65.70
64718;DHT22;62506;46.070;14.492;2023-10-08T01:05:12;23.40;65.60
64718;DHT22;62506;46.070;14.492;2023-10-08T01:07:39;23.40;65.60
64718;DHT22;62506;46.070;14.492;2023-10-08T01:10:09;23.40;65.70
64718;DHT22;62506;46.070;14.492;2023-10-08T01:12:36;23.40;65.70
64718;DHT22;62506;46.070;14.492;2023-10-08T01:15:10;23.40;65.70
64718;DHT22;62506;46.070;14.492;2023-10-08T01:17:48;23.40;65.70
64718;DHT22;62506;46.070;14.492;2023-10-08T01:20:26;23.30;65.70
64718;DHT22;62506;46.070;14.492;2023-10-08T01:22:58;23.40;65.70
64718;DHT22;62506;46.070;14.492;2023-10-08T01:25:23;23.30;65.70
64718;DHT22;62506;46.070;14.492;2023-10-08T01:27:55;23.30;65.70
64718;DHT22;62506;46.070;14.492;2023-10-08T01:30:20;23.40;65.70
64718;DHT22;62506;46.070;14.492;2023-10-08T01:32:46;23.30;65.70
64718;DHT22;62506;46.070;14.492;2023-10-08T01:35:12;23.40;65.70
64718;DHT22;62506;46.070;14.492;2023-10-08T01:37:48;23.40;65.70
64718;DHT22;62506;46.070;14.492;2023-10-08T01:40:16;23.30;65.70
64718;DHT22;62506;46.070;14.492;2023-10-08T01:42:42;23.40;65.70
64718;DHT22;62506;46.070;14.492;2023-10-08T01:45:07;23.40;65.60
64718;DHT22;62506;46.070;14.492;2023-10-08T01:47:35;23.40;65.50
64718;DHT22;62506;46.070;14.492;2023-10-08T01:50:01;23.40;65.50
64718;DHT22;62506;46.070;14.492;2023-10-08T01:52:30;23.40;65.50
64718;DHT22;62506;46.070;14.492;2023-10-08T01:54:56;23.40;65.50
64718;DHT22;62506;46.070;14.492;2023-10-08T01:57:21;23.40;65.40
64718;DHT22;62506;46.070;14.492;2023-10-08T01:59:47;23.40;65.40
64718;DHT22;62506;46.070;14.492;2023-10-08T02:02:13;23.40;65.40
64718;DHT22;62506;46.070;14.492;2023-10-08T02:04:41;23.40;65.30
64718;DHT22;62506;46.070;14.492;2023-10-08T02:07:06;23.40;65.40
64718;DHT22;62506;46.070;14.492;2023-10-08T02:09:38;23.40;65.40
64718;DHT22;62506;46.070;14.492;2023-10-08T02:12:04;23.40;65.30
64718;DHT22;62506;46.070;14.492;2023-10-08T02:14:29;23.40;65.30
64718;DHT22;62506;46.070;14.492;2023-10-08T02:16:57;23.40;65.40
64718;DHT22;62506;46.070;14.492;2023-10-08T02:19:27;23.40;65.50
64718;DHT22;62506;46.070;14.492;2023-10-08T02:21:53;23.40;65.50
64718;DHT22;62506;46.070;14.492;2023-10-08T02:24:20;23.40;65.50
64718;DHT22;62506;46.070;14.492;2023-10-08T02:26:47;23.40;65.60
64718;DHT22;62506;46.070;14.492;2023-10-08T02:29:12;23.30;65.60
64718;DHT22;62506;46.070;14.492;2023-10-08T02:31:41;23.40;65.70
64718;DHT22;62506;46.070;14.492;2023-10-08T02:34:07;23.30;65.60
64718;DHT22;62506;46.070;14.492;2023-10-08T02:36:37;23.30;65.60
64718;DHT22;62506;46.070;14.492;2023-10-08T02:39:03;23.30;65.60
64718;DHT22;62506;46.070;14.492;2023-10-08T02:41:32;23.30;65.60
64718;DHT22;62506;46.070;14.492;2023-10-08T02:43:57;23.30;65.60
64718;DHT22;62506;46.070;14.492;2023-10-08T02:46:24;23.30;65.70
64718;DHT22;62506;46.070;14.492;2023-10-08T02:48:52;23.30;65.70
64718;DHT22;62506;46.070;14.492;2023-10-08T02:51:18;23.30;65.80
64718;DHT22;62506;46.070;14.492;2023-10-08T02:53:46;23.30;65.80
64718;DHT22;62506;46.070;14.492;2023-10-08T02:56:12;23.30;65.80
64718;DHT22;62506;46.070;14.492;2023-10-08T02:58:39;23.30;65.80
64718;DHT22;62506;46.070;14.492;2023-10-08T03:01:04;23.30;65.80
64718;DHT22;62506;46.070;14.492;2023-10-08T03:03:30;23.30;65.80
64718;DHT22;62506;46.070;14.492;2023-10-08T03:05:57;23.30;65.80
64718;DHT22;62506;46.070;14.492;2023-10-08T03:08:23;23.30;65.80
64718;DHT22;62506;46.070;14.492;2023-10-08T03:10:49;23.30;65.70
64718;DHT22;62506;46.070;14.492;2023-10-08T03:13:21;23.30;65.60
64718;DHT22;62506;46.070;14.492;2023-10-08T03:15:47;23.30;65.60
64718;DHT22;62506;46.070;14.492;2023-10-08T03:18:23;23.30;65.60
64718;DHT22;62506;46.070;14.492;2023-10-08T03:20:49;23.40;65.50
64718;DHT22;62506;46.070;14.492;2023-10-08T03:23:15;23.30;65.40
64718;DHT22;62506;46.070;14.492;2023-10-08T03:25:58;23.30;65.30
64718;DHT22;62506;46.070;14.492;2023-10-08T03:28:24;23.40;65.30
64718;DHT22;62506;46.070;14.492;2023-10-08T03:30:51;23.40;65.30
64718;DHT22;62506;46.070;14.492;2023-10-08T03:33:17;23.40;66.10
64718;DHT22;62506;46.070;14.492;2023-10-08T03:35:48;23.30;65.20
64718;DHT22;62506;46.070;14.492;2023-10-08T03:38:14;23.40;65.30
64718;DHT22;62506;46.070;14.492;2023-10-08T03:40:58;23.40;65.30
64718;DHT22;62506;46.070;14.492;2023-10-08T03:43:33;23.40;65.20
64718;DHT22;62506;46.070;14.492;2023-10-08T03:46:12;23.30;65.30
64718;DHT22;62506;46.070;14.492;2023-10-08T03:48:43;23.30;65.30
64718;DHT22;62506;46.070;14.492;2023-10-08T03:51:11;23.30;65.30
64718;DHT22;62506;46.070;14.492;2023-10-08T03:53:38;23.30;65.50
64718;DHT22;62506;46.070;14.492;2023-10-08T03:56:08;23.30;65.60
64718;DHT22;62506;46.070;14.492;2023-10-08T03:58:34;23.30;65.40
64718;DHT22;62506;46.070;14.492;2023-10-08T04:01:06;23.30;65.30
64718;DHT22;62506;46.070;14.492;2023-10-08T04:03:35;23.30;65.30
64718;DHT22;62506;46.070;14.492;2023-10-08T04:06:16;23.40;65.20
64718;DHT22;62506;46.070;14.492;2023-10-08T04:08:41;23.30;65.20
64718;DHT22;62506;46.070;14.492;2023-10-08T04:11:20;23.30;65.20
64718;DHT22;62506;46.070;14.492;2023-10-08T04:14:01;23.40;65.20
64718;DHT22;62506;46.070;14.492;2023-10-08T04:16:32;23.40;65.20
64718;DHT22;62506;46.070;14.492;2023-10-08T04:19:02;23.40;65.10
64718;DHT22;62506;46.070;14.492;2023-10-08T04:21:28;23.40;65.20
64718;DHT22;62506;46.070;14.492;2023-10-08T04:23:54;23.40;65.20
64718;DHT22;62506;46.070;14.492;2023-10-08T04:26:25;23.40;65.10
64718;DHT22;62506;46.070;14.492;2023-10-08T04:28:54;23.40;65.00
64718;DHT22;62506;46.070;14.492;2023-10-08T04:31:23;23.40;65.00
64718;DHT22;62506;46.070;14.492;2023-10-08T04:33:53;23.40;65.00
64718;DHT22;62506;46.070;14.492;2023-10-08T04:36:25;23.40;65.00
64718;DHT22;62506;46.070;14.492;2023-10-08T04:45:04;23.40;65.50
64718;DHT22;62506;46.070;14.492;2023-10-08T04:47:56;23.50;65.20
64718;DHT22;62506;46.070;14.492;2023-10-08T04:50:59;23.50;65.30
64718;DHT22;62506;46.070;14.492;2023-10-08T04:54:14;23.50;65.70
64718;DHT22;62506;46.070;14.492;2023-10-08T05:00:32;23.50;65.60
64718;DHT22;62506;46.070;14.492;2023-10-08T05:03:12;23.50;65.50
64718;DHT22;62506;46.070;14.492;2023-10-08T05:06:09;23.60;65.60
64718;DHT22;62506;46.070;14.492;2023-10-08T05:11:47;23.60;65.20
64718;DHT22;62506;46.070;14.492;2023-10-08T05:14:16;23.70;65.20
64718;DHT22;62506;46.070;14.492;2023-10-08T05:17:08;23.70;65.20
64718;DHT22;62506;46.070;14.492;2023-10-08T05:20:07;23.70;65.10
64718;DHT22;62506;46.070;14.492;2023-10-08T05:22:34;23.80;65.50
64718;DHT22;62506;46.070;14.492;2023-10-08T05:25:45;23.80;65.10
64718;DHT22;62506;46.070;14.492;2023-10-08T05:28:33;23.80;65.50
64718;DHT22;62506;46.070;14.492;2023-10-08T05:31:13;23.70;65.60
64718;DHT22;62506;46.070;14.492;2023-10-08T05:33:39;23.70;65.70
64718;DHT22;62506;46.070;14.492;2023-10-08T05:36:44;23.70;66.60
64718;DHT22;62506;46.070;14.492;2023-10-08T05:39:25;23.70;65.70
64718;DHT22;62506;46.070;14.492;2023-10-08T05:42:04;23.70;65.80
64718;DHT22;62506;46.070;14.492;2023-10-08T05:44:44;23.70;65.80
64718;DHT22;62506;46.070;14.492;2023-10-08T05:47:32;23.70;65.70
64718;DHT22;62506;46.070;14.492;2023-10-08T05:49:58;23.80;65.90
64718;DHT22;62506;46.070;14.492;2023-10-08T05:52:45;23.70;65.70
64718;DHT22;62506;46.070;14.492;2023-10-08T05:55:22;23.70;66.00
64718;DHT22;62506;46.070;14.492;2023-10-08T05:57:58;23.70;65.50
64718;DHT22;62506;46.070;14.492;2023-10-08T06:00:43;23.70;65.70
64718;DHT22;62506;46.070;14.492;2023-10-08T06:03:32;23.60;65.70
64718;DHT22;62506;46.070;14.492;2023-10-08T06:06:04;23.60;65.20
64718;DHT22;62506;46.070;14.492;2023-10-08T06:18:04;23.60;66.00
64718;DHT22;62506;46.070;14.492;2023-10-08T06:21:14;23.60;65.70
64718;DHT22;62506;46.070;14.492;2023-10-08T06:24:30;23.60;65.80
64718;DHT22;62506;46.070;14.492;2023-10-08T06:33:29;23.60;65.70
64718;DHT22;62506;46.070;14.492;2023-10-08T06:50:03;23.80;64.90
64718;DHT22;62506;46.070;14.492;2023-10-08T06:56:19;23.70;65.90
64718;DHT22;62506;46.070;14.492;2023-10-08T06:59:26;23.80;66.10
64718;DHT22;62506;46.070;14.492;2023-10-08T07:02:30;23.80;66.30
64718;DHT22;62506;46.070;14.492;2023-10-08T07:11:33;23.80;65.80
64718;DHT22;62506;46.070;14.492;2023-10-08T07:14:06;23.90;65.80
64718;DHT22;62506;46.070;14.492;2023-10-08T07:16:55;23.90;65.70
64718;DHT22;62506;46.070;14.492;2023-10-08T07:19:27;23.90;66.20
64718;DHT22;62506;46.070;14.492;2023-10-08T07:22:07;23.90;66.40
64718;DHT22;62506;46.070;14.492;2023-10-08T07:24:46;23.80;65.80
64718;DHT22;62506;46.070;14.492;2023-10-08T07:27:16;23.80;66.00
64718;DHT22;62506;46.070;14.492;2023-10-08T07:29:47;23.70;66.30
64718;DHT22;62506;46.070;14.492;2023-10-08T07:32:13;23.70;66.70
64718;DHT22;62506;46.070;14.492;2023-10-08T07:34:40;23.70;66.90
64718;DHT22;62506;46.070;14.492;2023-10-08T07:37:06;23.70;67.00
64718;DHT22;62506;46.070;14.492;2023-10-08T07:39:31;23.70;67.00
64718;DHT22;62506;46.070;14.492;2023-10-08T07:41:57;23.70;67.10
64718;DHT22;62506;46.070;14.492;2023-10-08T07:44:24;23.60;67.20
64718;DHT22;62506;46.070;14.492;2023-10-08T07:46:52;23.70;67.20
64718;DHT22;62506;46.070;14.492;2023-10-08T07:49:31;23.70;66.90
64718;DHT22;62506;46.070;14.492;2023-10-08T07:51:57;23.80;66.50
64718;DHT22;62506;46.070;14.492;2023-10-08T07:54:26;23.80;66.80
64718;DHT22;62506;46.070;14.492;2023-10-08T07:57:02;23.90;66.70
64718;DHT22;62506;46.070;14.492;2023-10-08T07:59:35;24.00;66.80
64718;DHT22;62506;46.070;14.492;2023-10-08T08:02:24;24.10;67.00
64718;DHT22;62506;46.070;14.492;2023-10-08T08:04:52;24.10;66.60
64718;DHT22;62506;46.070;14.492;2023-10-08T08:07:20;24.10;66.30
64718;DHT22;62506;46.070;14.492;2023-10-08T08:09:49;24.20;66.20
64718;DHT22;62506;46.070;14.492;2023-10-08T08:12:23;24.20;66.10
64718;DHT22;62506;46.070;14.492;2023-10-08T08:14:50;24.20;65.70
64718;DHT22;62506;46.070;14.492;2023-10-08T08:17:19;24.30;65.70
64718;DHT22;62506;46.070;14.492;2023-10-08T08:19:48;24.30;66.40
64718;DHT22;62506;46.070;14.492;2023-10-08T08:22:18;24.40;66.00
64718;DHT22;62506;46.070;14.492;2023-10-08T08:24:47;24.40;66.10
64718;DHT22;62506;46.070;14.492;2023-10-08T08:27:15;24.30;66.50
64718;DHT22;62506;46.070;14.492;2023-10-08T08:33:12;24.40;66.90
64718;DHT22;62506;46.070;14.492;2023-10-08T08:35:38;24.40;67.20
64718;DHT22;62506;46.070;14.492;2023-10-08T08:42:03;24.40;66.30
64718;DHT22;62506;46.070;14.492;2023-10-08T08:47:59;24.40;65.70
64718;DHT22;62506;46.070;14.492;2023-10-08T08:53:30;24.50;65.60
64718;DHT22;62506;46.070;14.492;2023-10-08T09:09:39;24.30;65.90
64718;DHT22;62506;46.070;14.492;2023-10-08T09:12:10;24.20;65.90
64718;DHT22;62506;46.070;14.492;2023-10-08T09:14:36;24.20;65.90
64718;DHT22;62506;46.070;14.492;2023-10-08T09:17:06;24.20;66.00
64718;DHT22;62506;46.070;14.492;2023-10-08T09:19:37;24.20;65.90
64718;DHT22;62506;46.070;14.492;2023-10-08T09:22:06;24.20;65.80
64718;DHT22;62506;46.070;14.492;2023-10-08T09:24:53;24.20;65.90
64718;DHT22;62506;46.070;14.492;2023-10-08T09:27:19;24.20;65.90
64718;DHT22;62506;46.070;14.492;2023-10-08T09:29:44;24.20;65.90
64718;DHT22;62506;46.070;14.492;2023-10-08T09:32:12;24.20;65.60
64718;DHT22;62506;46.070;14.492;2023-10-08T09:34:38;24.20;65.70
64718;DHT22;62506;46.070;14.492;2023-10-08T09:37:04;24.20;64.50
64718;DHT22;62506;46.070;14.492;2023-10-08T09:39:30;24.00;60.10
64718;DHT22;62506;46.070;14.492;2023-10-08T09:42:00;23.90;59.50
64718;DHT22;62506;46.070;14.492;2023-10-08T09:44:28;23.90;60.00
64718;DHT22;62506;46.070;14.492;2023-10-08T09:46:57;23.90;61.80
64718;DHT22;62506;46.070;14.492;2023-10-08T09:50:10;23.80;61.30
64718;DHT22;62506;46.070;14.492;2023-10-08T09:52:10;23.80;62.30
64718;DHT22;62506;46.070;14.492;2023-10-08T09:54:48;23.70;61.30
64718;DHT22;62506;46.070;14.492;2023-10-08T09:57:15;23.60;59.30
64718;DHT22;62506;46.070;14.492;2023-10-08T09:59:44;23.50;59.10
64718;DHT22;62506;46.070;14.492;2023-10-08T10:02:11;23.50;60.60
64718;DHT22;62506;46.070;14.492;2023-10-08T10:04:41;23.60;60.00
64718;DHT22;62506;46.070;14.492;2023-10-08T10:07:12;23.50;61.10
64718;DHT22;62506;46.070;14.492;2023-10-08T10:09:38;23.50;61.50
64718;DHT22;62506;46.070;14.492;2023-10-08T10:12:04;23.50;62.20
64718;DHT22;62506;46.070;14.492;2023-10-08T10:14:47;23.50;61.30
64718;DHT22;62506;46.070;14.492;2023-10-08T10:17:20;23.50;61.60
64718;DHT22;62506;46.070;14.492;2023-10-08T10:19:57;23.50;62.50
64718;DHT22;62506;46.070;14.492;2023-10-08T10:24:54;23.40;60.60
64718;DHT22;62506;46.070;14.492;2023-10-08T10:27:20;23.30;61.90
64718;DHT22;62506;46.070;14.492;2023-10-08T10:29:46;23.40;61.00
64718;DHT22;62506;46.070;14.492;2023-10-08T10:32:14;23.30;60.00
64718;DHT22;62506;46.070;14.492;2023-10-08T10:34:43;23.30;60.60
64718;DHT22;62506;46.070;14.492;2023-10-08T10:37:09;23.40;61.30
64718;DHT22;62506;46.070;14.492;2023-10-08T10:39:53;23.50;61.70
64718;DHT22;62506;46.070;14.492;2023-10-08T10:42:36;23.50;60.60
64718;DHT22;62506;46.070;14.492;2023-10-08T10:45:15;23.50;61.80
64718;DHT22;62506;46.070;14.492;2023-10-08T10:48:13;23.40;60.50
64718;DHT22;62506;46.070;14.492;2023-10-08T10:50:47;23.50;60.70
64718;DHT22;62506;46.070;14.492;2023-10-08T10:53:39;23.50;60.70
64718;DHT22;62506;46.070;14.492;2023-10-08T10:56:24;23.50;60.70
64718;DHT22;62506;46.070;14.492;2023-10-08T10:58:59;23.60;61.00
64718;DHT22;62506;46.070;14.492;2023-10-08T11:01:28;23.60;60.70
64718;DHT22;62506;46.070;14.492;2023-10-08T11:04:10;23.60;60.90
64718;DHT22;62506;46.070;14.492;2023-10-08T11:06:44;23.70;61.30
64718;DHT22;62506;46.070;14.492;2023-10-08T11:12:50;23.80;61.50
64718;DHT22;62506;46.070;14.492;2023-10-08T11:15:19;23.80;62.10
64718;DHT22;62506;46.070;14.492;2023-10-08T11:17:49;23.90;62.40
64718;DHT22;62506;46.070;14.492;2023-10-08T11:20:50;23.90;63.10
64718;DHT22;62506;46.070;14.492;2023-10-08T11:23:30;24.00;62.00
64718;DHT22;62506;46.070;14.492;2023-10-08T11:26:00;24.00;61.60
64718;DHT22;62506;46.070;14.492;2023-10-08T11:31:34;24.10;62.90
64718;DHT22;62506;46.070;14.492;2023-10-08T11:34:46;24.20;63.10
64718;DHT22;62506;46.070;14.492;2023-10-08T11:50:57;24.60;63.80
64718;DHT22;62506;46.070;14.492;2023-10-08T11:53:44;24.60;63.60
64718;DHT22;62506;46.070;14.492;2023-10-08T12:59:27;24.40;62.20
64718;DHT22;62506;46.070;14.492;2023-10-08T13:11:27;24.30;64.20
64718;DHT22;62506;46.070;14.492;2023-10-08T13:13:55;24.30;64.80
64718;DHT22;62506;46.070;14.492;2023-10-08T13:16:25;24.30;64.00
64718;DHT22;62506;46.070;14.492;2023-10-08T13:18:51;24.30;64.70
64718;DHT22;62506;46.070;14.492;2023-10-08T13:21:17;24.20;65.30
64718;DHT22;62506;46.070;14.492;2023-10-08T13:23:44;24.20;66.20
64718;DHT22;62506;46.070;14.492;2023-10-08T13:26:11;24.20;64.10
64718;DHT22;62506;46.070;14.492;2023-10-08T13:28:43;24.20;63.80
64718;DHT22;62506;46.070;14.492;2023-10-08T13:31:10;24.20;63.60
64718;DHT22;62506;46.070;14.492;2023-10-08T13:33:39;24.20;64.50
64718;DHT22;62506;46.070;14.492;2023-10-08T13:36:06;24.20;63.30
64718;DHT22;62506;46.070;14.492;2023-10-08T13:38:35;24.10;62.80
64718;DHT22;62506;46.070;14.492;2023-10-08T13:41:02;24.10;64.30
64718;DHT22;62506;46.070;14.492;2023-10-08T13:43:49;24.10;65.20
64718;DHT22;62506;46.070;14.492;2023-10-08T13:46:20;24.10;64.60
64718;DHT22;62506;46.070;14.492;2023-10-08T13:48:48;24.10;65.60
64718;DHT22;62506;46.070;14.492;2023-10-08T13:51:18;24.10;65.90
64718;DHT22;62506;46.070;14.492;2023-10-08T13:53:51;24.00;65.60
64718;DHT22;62506;46.070;14.492;2023-10-08T13:56:25;24.00;65.00
64718;DHT22;62506;46.070;14.492;2023-10-08T13:58:52;24.10;65.20
64718;DHT22;62506;46.070;14.492;2023-10-08T14:01:21;24.00;65.30
64718;DHT22;62506;46.070;14.492;2023-10-08T14:03:50;24.00;65.20
64718;DHT22;62506;46.070;14.492;2023-10-08T14:06:19;24.00;65.30
64718;DHT22;62506;46.070;14.492;2023-10-08T14:08:45;24.00;65.60
64718;DHT22;62506;46.070;14.492;2023-10-08T14:11:17;24.00;66.10
64718;DHT22;62506;46.070;14.492;2023-10-08T14:13:43;24.00;66.20
64718;DHT22;62506;46.070;14.492;2023-10-08T14:16:09;24.00;66.10
64718;DHT22;62506;46.070;14.492;2023-10-08T14:18:59;24.00;66.10
64718;DHT22;62506;46.070;14.492;2023-10-08T14:21:30;24.00;66.40
64718;DHT22;62506;46.070;14.492;2023-10-08T14:24:44;24.00;66.50
64718;DHT22;62506;46.070;14.492;2023-10-08T14:27:11;24.00;66.80
64718;DHT22;62506;46.070;14.492;2023-10-08T14:29:58;24.00;67.10
64718;DHT22;62506;46.070;14.492;2023-10-08T14:32:31;24.00;67.20
64718;DHT22;62506;46.070;14.492;2023-10-08T14:35:18;24.00;67.20
64718;DHT22;62506;46.070;14.492;2023-10-08T14:38:05;24.00;67.10
64718;DHT22;62506;46.070;14.492;2023-10-08T14:56:44;24.20;66.70
64718;DHT22;62506;46.070;14.492;2023-10-08T15:16:49;24.30;67.10
64718;DHT22;62506;46.070;14.492;2023-10-08T15:26:01;24.30;67.20
64718;DHT22;62506;46.070;14.492;2023-10-08T15:28:26;24.30;67.20
64718;DHT22;62506;46.070;14.492;2023-10-08T15:30:52;24.30;67.20
64718;DHT22;62506;46.070;14.492;2023-10-08T15:33:18;24.30;67.30
64718;DHT22;62506;46.070;14.492;2023-10-08T16:01:38;24.20;68.20
64718;DHT22;62506;46.070;14.492;2023-10-08T16:04:27;24.30;67.10
64718;DHT22;62506;46.070;14.492;2023-10-08T16:07:34;24.30;67.40
64718;DHT22;62506;46.070;14.492;2023-10-08T16:10:00;24.40;67.30
64718;DHT22;62506;46.070;14.492;2023-10-08T16:15:50;24.40;67.00
64718;DHT22;62506;46.070;14.492;2023-10-08T16:18:16;24.40;67.30
64718;DHT22;62506;46.070;14.492;2023-10-08T16:20:43;24.40;67.20
64718;DHT22;62506;46.070;14.492;2023-10-08T16:41:41;24.40;67.50
64718;DHT22;62506;46.070;14.492;2023-10-08T16:47:57;24.40;67.50
64718;DHT22;62506;46.070;14.492;2023-10-08T18:14:13;24.40;69.20
64718;DHT22;62506;46.070;14.492;2023-10-08T18:16:51;24.40;69.20
64718;DHT22;62506;46.070;14.492;2023-10-08T18:20:14;24.40;69.20
64718;DHT22;62506;46.070;14.492;2023-10-08T18:22:50;24.40;69.20
64718;DHT22;62506;46.070;14.492;2023-10-08T18:25:16;24.30;69.40
64718;DHT22;62506;46.070;14.492;2023-10-08T18:27:42;24.30;69.40
64718;DHT22;62506;46.070;14.492;2023-10-08T18:30:08;24.30;69.30
64718;DHT22;62506;46.070;14.492;2023-10-08T18:32:34;24.30;69.70
64718;DHT22;62506;46.070;14.492;2023-10-08T19:11:42;24.40;69.20
64718;DHT22;62506;46.070;14.492;2023-10-08T19:14:10;24.40;69.20
64718;DHT22;62506;46.070;14.492;2023-10-08T19:16:35;24.40;69.40
64718;DHT22;62506;46.070;14.492;2023-10-08T19:19:02;24.30;69.50
64718;DHT22;62506;46.070;14.492;2023-10-08T19:21:29;24.30;69.40
64718;DHT22;62506;46.070;14.492;2023-10-08T19:23:55;24.30;69.40
64718;DHT22;62506;46.070;14.492;2023-10-08T19:26:22;24.30;69.50
64718;DHT22;62506;46.070;14.492;2023-10-08T19:28:54;24.30;70.60
64718;DHT22;62506;46.070;14.492;2023-10-08T19:31:20;24.30;69.90
64718;DHT22;62506;46.070;14.492;2023-10-08T19:33:46;24.20;70.00
64718;DHT22;62506;46.070;14.492;2023-10-08T19:36:12;24.30;70.10
64718;DHT22;62506;46.070;14.492;2023-10-08T19:38:40;24.20;70.20
64718;DHT22;62506;46.070;14.492;2023-10-08T19:41:11;24.20;70.30
64718;DHT22;62506;46.070;14.492;2023-10-08T19:43:40;24.20;70.40
64718;DHT22;62506;46.070;14.492;2023-10-08T19:46:14;24.20;70.40
64718;DHT22;62506;46.070;14.492;2023-10-08T19:48:40;24.20;70.50
64718;DHT22;62506;46.070;14.492;2023-10-08T19:51:11;24.10;70.60
64718;DHT22;62506;46.070;14.492;2023-10-08T19:53:44;24.10;70.60
64718;DHT22;62506;46.070;14.492;2023-10-08T19:56:13;24.10;70.60
64718;DHT22;62506;46.070;14.492;2023-10-08T19:58:40;24.10;70.80
64718;DHT22;62506;46.070;14.492;2023-10-08T20:01:05;24.10;70.70
64718;DHT22;62506;46.070;14.492;2023-10-08T20:03:31;24.10;70.80
64718;DHT22;62506;46.070;14.492;2023-10-08T20:05:57;24.10;70.80
64718;DHT22;62506;46.070;14.492;2023-10-08T20:08:22;24.10;70.80
64718;DHT22;62506;46.070;14.492;2023-10-08T20:10:48;24.10;70.90
64718;DHT22;62506;46.070;14.492;2023-10-08T20:13:15;24.10;71.10
64718;DHT22;62506;46.070;14.492;2023-10-08T20:15:41;24.10;71.00
64718;DHT22;62506;46.070;14.492;2023-10-08T20:18:16;24.10;70.90
64718;DHT22;62506;46.070;14.492;2023-10-08T20:20:42;24.10;71.00
64718;DHT22;62506;46.070;14.492;2023-10-08T20:23:08;24.00;71.00
64718;DHT22;62506;46.070;14.492;2023-10-08T20:25:37;24.00;71.00
64718;DHT22;62506;46.070;14.492;2023-10-08T20:28:09;24.00;70.90
64718;DHT22;62506;46.070;14.492;2023-10-08T20:30:36;24.10;71.00
64718;DHT22;62506;46.070;14.492;2023-10-08T20:33:06;24.10;71.10
64718;DHT22;62506;46.070;14.492;2023-10-08T20:35:35;24.00;70.80
64718;DHT22;62506;46.070;14.492;2023-10-08T20:38:01;24.00;70.90
64718;DHT22;62506;46.070;14.492;2023-10-08T20:40:28;24.00;70.80
64718;DHT22;62506;46.070;14.492;2023-10-08T20:42:54;24.00;70.80
64718;DHT22;62506;46.070;14.492;2023-10-08T20:45:20;24.00;70.80
64718;DHT22;62506;46.070;14.492;2023-10-08T20:47:51;24.00;70.80
64718;DHT22;62506;46.070;14.492;2023-10-08T20:50:18;24.00;70.80
64718;DHT22;62506;46.070;14.492;2023-10-08T20:55:11;24.00;70.80
64718;DHT22;62506;46.070;14.492;2023-10-08T20:57:42;24.00;70.80
64718;DHT22;62506;46.070;14.492;2023-10-08T21:00:10;24.00;70.70
64718;DHT22;62506;46.070;14.492;2023-10-08T21:02:36;24.00;70.90
64718;DHT22;62506;46.070;14.492;2023-10-08T21:05:02;23.90;70.90
64718;DHT22;62506;46.070;14.492;2023-10-08T21:07:31;23.90;71.80
64718;DHT22;62506;46.070;14.492;2023-10-08T21:09:59;23.90;70.90
64718;DHT22;62506;46.070;14.492;2023-10-08T21:12:25;23.90;71.00
64718;DHT22;62506;46.070;14.492;2023-10-08T21:14:52;23.90;71.00
64718;DHT22;62506;46.070;14.492;2023-10-08T21:17:18;23.90;70.90
64718;DHT22;62506;46.070;14.492;2023-10-08T21:19:45;23.90;70.90
64718;DHT22;62506;46.070;14.492;2023-10-08T21:22:10;23.90;71.00
64718;DHT22;62506;46.070;14.492;2023-10-08T21:24:37;23.90;71.00
64718;DHT22;62506;46.070;14.492;2023-10-08T21:27:03;23.90;71.10
64718;DHT22;62506;46.070;14.492;2023-10-08T21:29:28;23.90;71.00
64718;DHT22;62506;46.070;14.492;2023-10-08T21:31:54;23.90;71.10
64718;DHT22;62506;46.070;14.492;2023-10-08T21:34:19;23.80;70.90
64718;DHT22;62506;46.070;14.492;2023-10-08T21:36:45;23.80;70.80
64718;DHT22;62506;46.070;14.492;2023-10-08T21:39:11;23.80;70.80
64718;DHT22;62506;46.070;14.492;2023-10-08T21:41:37;23.80;70.80
64718;DHT22;62506;46.070;14.492;2023-10-08T21:44:04;23.80;70.70
64718;DHT22;62506;46.070;14.492;2023-10-08T21:46:31;23.80;70.80
64718;DHT22;62506;46.070;14.492;2023-10-08T21:48:57;23.80;70.60
64718;DHT22;62506;46.070;14.492;2023-10-08T21:51:22;23.80;70.60
64718;DHT22;62506;46.070;14.492;2023-10-08T21:53:49;23.80;70.50
64718;DHT22;62506;46.070;14.492;2023-10-08T21:56:15;23.80;70.30
64718;DHT22;62506;46.070;14.492;2023-10-08T21:58:40;23.80;70.30
64718;DHT22;62506;46.070;14.492;2023-10-08T22:01:06;23.80;70.40
64718;DHT22;62506;46.070;14.492;2023-10-08T22:03:35;23.80;70.30
64718;DHT22;62506;46.070;14.492;2023-10-08T22:06:01;23.80;70.20
64718;DHT22;62506;46.070;14.492;2023-10-08T22:08:26;23.80;70.10
64718;DHT22;62506;46.070;14.492;2023-10-08T22:10:53;23.90;70.10
64718;DHT22;62506;46.070;14.492;2023-10-08T22:13:39;23.80;69.90
64718;DHT22;62506;46.070;14.492;2023-10-08T22:16:07;23.80;69.80